Terminal Aerodrome Forecast
Issued by NWS Sterling, VA

Current Version | Previous Version | Graphics & Text | Print | Product List | Glossary On
Versions: 1 2 3 4 5 6 7 8 9 10 11 12 13 14 15 16 17 18 19 20
925
FTUS41 KLWX 270801 AAC
TAFMRB
TAF AMD
KMRB 270801Z 2708/2806 VRB03KT 3/4SM BR SCT025 OVC050
      TEMPO 2708/2709 1/4SM FG OVC001
     FM270900 30005KT P6SM FEW050 BKN200
     FM271800 23005KT P6SM FEW200
     FM272300 VRB03KT P6SM FEW200=

USA.gov is the U.S. government's official web portal to all federal, state and local government web resources and services.